Flight Track Log - Related Links

Times and Time Zones

All times are in EDT time to prevent confusion due to time zone crossing. See the UPS1121 flight status page for this flight to view local times or setup timezone preferences in your user account.

Time Position Orientation Groundspeed Altitude Reporting Facility
EDT Latitude Longitude Course Direction KTS MPH feet Rate Location/Type
Tue 08:37:35 PM 42.7339 -73.8081 138° Southeast 154 177 1,800  Level Boston Center
Tue 08:39:19 PM 42.6497 -73.7047 138° Southeast 256 295 6,300 2,780 Climbing Boston Center
Tue 08:40:19 PM 42.5986 -73.6219 130° Southeast 306 352 9,400 2,050 Climbing Boston Center
Tue 08:41:19 PM 42.5350 -73.5192 130° Southeast 321 369 10,400 1,032 Climbing Boston Center
Tue 08:41:52 PM 42.4978 -73.4650 133° Southeast 341 392 11,000 414 Climbing Boston Center
Tue 08:42:46 PM 42.4319 -73.3656 132° Southeast 382 440 11,000  Level Boston Center
Tue 08:43:19 PM 42.3950 -73.3089 131° Southeast 378 435 11,000  Level Boston Center
Tue 08:44:19 PM 42.3519 -73.1931 117° Southeast 378 435 11,000 -150 Level Boston Center
Tue 08:45:19 PM 42.3050 -73.0606 116° Southeast 364 419 10,700 -850 Descending Boston Center
Tue 08:46:19 PM 42.2700 -72.9647 116° Southeast 329 379 9,300 -1,667 Descending Boston Center
Tue 08:46:49 PM 42.2411 -72.9000 121° Southeast 319 367 8,200 -2,100 Descending Boston Center
Tue 08:47:19 PM 42.2247 -72.8467 113° Southeast 317 365 7,200 -1,967 Descending Boston Center
Tue 08:47:50 PM 42.2019 -72.7933 120° Southeast 316 364 6,200 -1,582 Descending Boston Center
Tue 08:48:50 PM 42.1647 -72.6922 116° Southeast 304 350 4,800 -1,148 Descending Boston Center
Tue 08:49:45 PM 42.1314 -72.5997 116° Southeast 292 336 4,000 -517 Descending Boston Center
Tue 08:50:46 PM 42.0981 -72.5269 122° Southeast 209 241 3,800 -470 Descending Boston Center
Tue 08:51:40 PM 42.0544 -72.5350 188° South 166 191 3,100 -826 Descending Boston Center
Tue 08:52:35 PM 42.0294 -72.5714 227° Southwest 158 182 2,300 -716 Descending Boston Center
Tue 08:53:29 PM 42.0044 -72.6022 223° Southwest 136 157 1,800 -595 Descending Boston Center
Tue 08:54:36 PM 41.9772 -72.6356 222° Southwest 119 137 1,100 -590 Descending Boston Center
Tue 08:55:31 PM 41.9583 -72.6606 225° Southwest 113 130 600 -545 Descending Boston Center

Login

Don't have an account? Register now (free) for customized features, flight alerts, and more!